sensor_id;sensor_type;location;lat;lon;timestamp;pressure;altitude;pressure_sealevel;temperature;humidity
66273;BME280;58450;52.150;4.466;2023-02-22T00:00:44;101521.66;;;8.15;100.00
66273;BME280;58450;52.150;4.466;2023-02-22T00:03:16;101525.16;;;8.16;100.00
66273;BME280;58450;52.150;4.466;2023-02-22T00:05:52;101518.09;;;8.14;100.00
66273;BME280;58450;52.150;4.466;2023-02-22T00:08:22;101522.34;;;8.17;100.00
66273;BME280;58450;52.150;4.466;2023-02-22T00:10:55;101523.09;;;8.09;100.00
66273;BME280;58450;52.150;4.466;2023-02-22T00:13:22;101513.97;;;8.02;100.00
66273;BME280;58450;52.150;4.466;2023-02-22T00:15:51;101517.34;;;7.86;100.00
66273;BME280;58450;52.150;4.466;2023-02-22T00:18:20;101500.13;;;7.71;100.00
66273;BME280;58450;52.150;4.466;2023-02-22T00:20:47;101497.69;;;7.77;100.00
66273;BME280;58450;52.150;4.466;2023-02-22T00:23:16;101505.47;;;7.52;100.00
66273;BME280;58450;52.150;4.466;2023-02-22T00:25:46;101498.19;;;7.45;100.00
66273;BME280;58450;52.150;4.466;2023-02-22T00:28:15;101496.84;;;7.95;100.00
66273;BME280;58450;52.150;4.466;2023-02-22T00:30:44;101487.19;;;7.84;100.00
66273;BME280;58450;52.150;4.466;2023-02-22T00:33:15;101488.66;;;7.78;100.00
66273;BME280;58450;52.150;4.466;2023-02-22T00:35:43;101492.09;;;7.89;100.00
66273;BME280;58450;52.150;4.466;2023-02-22T00:38:13;101495.38;;;7.82;100.00
66273;BME280;58450;52.150;4.466;2023-02-22T00:40:42;101488.97;;;7.29;100.00
66273;BME280;58450;52.150;4.466;2023-02-22T00:43:10;101491.84;;;7.82;100.00
66273;BME280;58450;52.150;4.466;2023-02-22T00:45:37;101482.44;;;7.78;100.00
66273;BME280;58450;52.150;4.466;2023-02-22T00:48:05;101480.13;;;7.47;100.00
66273;BME280;58450;52.150;4.466;2023-02-22T00:50:35;101481.44;;;7.43;100.00
66273;BME280;58450;52.150;4.466;2023-02-22T00:53:04;101485.50;;;7.19;100.00
66273;BME280;58450;52.150;4.466;2023-02-22T00:55:34;101480.94;;;7.29;100.00
66273;BME280;58450;52.150;4.466;2023-02-22T00:58:04;101492.28;;;7.13;100.00
66273;BME280;58450;52.150;4.466;2023-02-22T01:00:35;101487.41;;;7.27;100.00
66273;BME280;58450;52.150;4.466;2023-02-22T01:03:05;101481.81;;;7.48;100.00
66273;BME280;58450;52.150;4.466;2023-02-22T01:05:36;101485.78;;;7.44;100.00
66273;BME280;58450;52.150;4.466;2023-02-22T01:08:05;101478.06;;;7.41;100.00
66273;BME280;58450;52.150;4.466;2023-02-22T01:10:35;101481.03;;;7.37;100.00
66273;BME280;58450;52.150;4.466;2023-02-22T01:13:04;101486.09;;;7.59;100.00
66273;BME280;58450;52.150;4.466;2023-02-22T01:15:38;101484.84;;;7.53;100.00
66273;BME280;58450;52.150;4.466;2023-02-22T01:18:07;101488.16;;;7.47;100.00
66273;BME280;58450;52.150;4.466;2023-02-22T01:20:37;101487.94;;;7.58;100.00
66273;BME280;58450;52.150;4.466;2023-02-22T01:23:05;101481.81;;;7.48;100.00
66273;BME280;58450;52.150;4.466;2023-02-22T01:25:35;101479.50;;;7.53;100.00
66273;BME280;58450;52.150;4.466;2023-02-22T01:28:05;101469.47;;;7.37;100.00
66273;BME280;58450;52.150;4.466;2023-02-22T01:30:35;101469.84;;;7.42;100.00
66273;BME280;58450;52.150;4.466;2023-02-22T01:33:04;101461.22;;;7.30;100.00
66273;BME280;58450;52.150;4.466;2023-02-22T01:35:35;101463.28;;;7.54;100.00
66273;BME280;58450;52.150;4.466;2023-02-22T01:38:08;101467.09;;;7.34;100.00
66273;BME280;58450;52.150;4.466;2023-02-22T01:40:37;101462.50;;;7.26;100.00
66273;BME280;58450;52.150;4.466;2023-02-22T01:43:15;101460.78;;;7.71;100.00
66273;BME280;58450;52.150;4.466;2023-02-22T01:45:53;101459.06;;;7.52;100.00
66273;BME280;58450;52.150;4.466;2023-02-22T01:48:27;101457.03;;;7.46;100.00
66273;BME280;58450;52.150;4.466;2023-02-22T01:51:01;101448.63;;;7.13;100.00
66273;BME280;58450;52.150;4.466;2023-02-22T01:53:40;101449.16;;;7.16;100.00
66273;BME280;58450;52.150;4.466;2023-02-22T01:56:14;101448.22;;;7.35;100.00
66273;BME280;58450;52.150;4.466;2023-02-22T01:58:45;101446.44;;;7.44;100.00
66273;BME280;58450;52.150;4.466;2023-02-22T02:01:17;101442.06;;;6.97;100.00
66273;BME280;58450;52.150;4.466;2023-02-22T02:03:48;101437.28;;;6.63;100.00
66273;BME280;58450;52.150;4.466;2023-02-22T02:06:18;101431.06;;;7.28;100.00
66273;BME280;58450;52.150;4.466;2023-02-22T02:08:53;101433.06;;;7.44;100.00
66273;BME280;58450;52.150;4.466;2023-02-22T02:11:27;101427.56;;;7.46;100.00
66273;BME280;58450;52.150;4.466;2023-02-22T02:13:56;101432.53;;;7.59;100.00
66273;BME280;58450;52.150;4.466;2023-02-22T02:16:26;101428.25;;;7.66;100.00
66273;BME280;58450;52.150;4.466;2023-02-22T02:19:02;101422.50;;;7.61;100.00
66273;BME280;58450;52.150;4.466;2023-02-22T02:21:52;101425.25;;;7.69;100.00
66273;BME280;58450;52.150;4.466;2023-02-22T02:28:34;101410.69;;;7.17;100.00
66273;BME280;58450;52.150;4.466;2023-02-22T02:31:34;101409.38;;;7.21;100.00
66273;BME280;58450;52.150;4.466;2023-02-22T02:34:29;101404.69;;;6.87;100.00
66273;BME280;58450;52.150;4.466;2023-02-22T02:37:06;101410.06;;;7.05;100.00
66273;BME280;58450;52.150;4.466;2023-02-22T02:39:49;101398.13;;;7.00;100.00
66273;BME280;58450;52.150;4.466;2023-02-22T02:42:31;101399.81;;;7.01;100.00
66273;BME280;58450;52.150;4.466;2023-02-22T02:45:07;101400.66;;;7.01;100.00
66273;BME280;58450;52.150;4.466;2023-02-22T02:47:44;101396.78;;;6.86;100.00
66273;BME280;58450;52.150;4.466;2023-02-22T02:50:20;101391.44;;;6.86;100.00
66273;BME280;58450;52.150;4.466;2023-02-22T02:52:52;101396.28;;;6.72;100.00
66273;BME280;58450;52.150;4.466;2023-02-22T02:55:24;101384.66;;;6.63;100.00
66273;BME280;58450;52.150;4.466;2023-02-22T02:57:52;101388.84;;;6.66;100.00
66273;BME280;58450;52.150;4.466;2023-02-22T03:00:23;101375.47;;;6.66;100.00
66273;BME280;58450;52.150;4.466;2023-02-22T03:03:06;101372.28;;;6.62;100.00
66273;BME280;58450;52.150;4.466;2023-02-22T03:06:11;101368.44;;;6.65;100.00
66273;BME280;58450;52.150;4.466;2023-02-22T03:08:53;101363.34;;;6.44;100.00
66273;BME280;58450;52.150;4.466;2023-02-22T03:11:28;101361.06;;;7.05;100.00
66273;BME280;58450;52.150;4.466;2023-02-22T03:14:08;101359.13;;;7.15;100.00
66273;BME280;58450;52.150;4.466;2023-02-22T03:16:45;101354.94;;;7.13;100.00
66273;BME280;58450;52.150;4.466;2023-02-22T03:19:25;101352.56;;;7.09;100.00
66273;BME280;58450;52.150;4.466;2023-02-22T03:22:01;101345.44;;;7.18;100.00
66273;BME280;58450;52.150;4.466;2023-02-22T03:24:40;101343.38;;;7.12;100.00
66273;BME280;58450;52.150;4.466;2023-02-22T03:27:21;101341.56;;;7.13;100.00
66273;BME280;58450;52.150;4.466;2023-02-22T03:29:57;101329.56;;;6.99;100.00
66273;BME280;58450;52.150;4.466;2023-02-22T03:32:31;101322.56;;;6.88;100.00
66273;BME280;58450;52.150;4.466;2023-02-22T03:35:07;101323.56;;;6.87;100.00
66273;BME280;58450;52.150;4.466;2023-02-22T03:37:39;101311.69;;;6.71;100.00
66273;BME280;58450;52.150;4.466;2023-02-22T03:40:14;101314.91;;;6.75;100.00
66273;BME280;58450;52.150;4.466;2023-02-22T03:42:53;101321.34;;;6.82;100.00
66273;BME280;58450;52.150;4.466;2023-02-22T03:45:26;101309.31;;;6.68;100.00
66273;BME280;58450;52.150;4.466;2023-02-22T03:48:01;101303.22;;;6.76;100.00
66273;BME280;58450;52.150;4.466;2023-02-22T03:50:37;101312.84;;;6.69;100.00
66273;BME280;58450;52.150;4.466;2023-02-22T03:53:05;101312.50;;;6.54;100.00
66273;BME280;58450;52.150;4.466;2023-02-22T03:55:33;101304.09;;;6.48;100.00
66273;BME280;58450;52.150;4.466;2023-02-22T03:58:04;101302.13;;;6.50;100.00
66273;BME280;58450;52.150;4.466;2023-02-22T04:00:36;101301.81;;;6.54;100.00
66273;BME280;58450;52.150;4.466;2023-02-22T04:03:04;101291.66;;;6.57;100.00
66273;BME280;58450;52.150;4.466;2023-02-22T04:05:32;101290.22;;;6.35;100.00
66273;BME280;58450;52.150;4.466;2023-02-22T04:08:00;101286.91;;;6.51;100.00
66273;BME280;58450;52.150;4.466;2023-02-22T04:10:28;101279.06;;;6.40;100.00
66273;BME280;58450;52.150;4.466;2023-02-22T04:12:55;101274.91;;;6.55;100.00
66273;BME280;58450;52.150;4.466;2023-02-22T04:15:23;101269.81;;;6.62;100.00
66273;BME280;58450;52.150;4.466;2023-02-22T04:17:51;101276.19;;;6.51;100.00
66273;BME280;58450;52.150;4.466;2023-02-22T04:20:18;101267.16;;;6.34;100.00
66273;BME280;58450;52.150;4.466;2023-02-22T04:22:50;101269.75;;;6.44;100.00
66273;BME280;58450;52.150;4.466;2023-02-22T04:25:20;101267.78;;;6.46;100.00
66273;BME280;58450;52.150;4.466;2023-02-22T04:27:49;101261.81;;;6.34;100.00
66273;BME280;58450;52.150;4.466;2023-02-22T04:30:17;101264.19;;;6.37;100.00
66273;BME280;58450;52.150;4.466;2023-02-22T04:32:46;101250.56;;;6.30;100.00
66273;BME280;58450;52.150;4.466;2023-02-22T04:35:13;101259.16;;;6.24;100.00
66273;BME280;58450;52.150;4.466;2023-02-22T04:37:41;101253.00;;;6.24;100.00
66273;BME280;58450;52.150;4.466;2023-02-22T04:40:09;101246.97;;;6.21;100.00
66273;BME280;58450;52.150;4.466;2023-02-22T04:42:38;101248.59;;;6.04;100.00
66273;BME280;58450;52.150;4.466;2023-02-22T04:45:07;101247.41;;;6.17;100.00
66273;BME280;58450;52.150;4.466;2023-02-22T04:47:36;101249.47;;;6.23;100.00
66273;BME280;58450;52.150;4.466;2023-02-22T04:50:04;101249.94;;;6.18;100.00
66273;BME280;58450;52.150;4.466;2023-02-22T04:52:33;101244.56;;;6.18;100.00
66273;BME280;58450;52.150;4.466;2023-02-22T04:55:01;101250.91;;;6.17;100.00
66273;BME280;58450;52.150;4.466;2023-02-22T04:57:29;101244.06;;;6.15;100.00
66273;BME280;58450;52.150;4.466;2023-02-22T04:59:58;101250.31;;;6.24;100.00
66273;BME280;58450;52.150;4.466;2023-02-22T05:02:26;101237.22;;;6.02;100.00
66273;BME280;58450;52.150;4.466;2023-02-22T05:04:53;101238.59;;;5.97;100.00
66273;BME280;58450;52.150;4.466;2023-02-22T05:07:21;101241.59;;;6.21;100.00
66273;BME280;58450;52.150;4.466;2023-02-22T05:09:48;101238.84;;;6.13;100.00
66273;BME280;58450;52.150;4.466;2023-02-22T05:12:16;101240.75;;;6.21;100.00
66273;BME280;58450;52.150;4.466;2023-02-22T05:14:43;101233.53;;;6.31;100.00
66273;BME280;58450;52.150;4.466;2023-02-22T05:17:12;101237.84;;;6.42;100.00
66273;BME280;58450;52.150;4.466;2023-02-22T05:19:40;101226.84;;;6.45;100.00
66273;BME280;58450;52.150;4.466;2023-02-22T05:22:07;101227.38;;;6.49;100.00
66273;BME280;58450;52.150;4.466;2023-02-22T05:24:35;101235.47;;;6.39;100.00
66273;BME280;58450;52.150;4.466;2023-02-22T05:27:03;101222.25;;;6.38;100.00
66273;BME280;58450;52.150;4.466;2023-02-22T05:29:31;101222.75;;;6.23;100.00
66273;BME280;58450;52.150;4.466;2023-02-22T05:31:58;101216.97;;;6.28;100.00
66273;BME280;58450;52.150;4.466;2023-02-22T05:34:28;101219.94;;;6.25;100.00
66273;BME280;58450;52.150;4.466;2023-02-22T05:36:56;101217.25;;;6.25;100.00
66273;BME280;58450;52.150;4.466;2023-02-22T05:39:23;101213.59;;;6.26;100.00
66273;BME280;58450;52.150;4.466;2023-02-22T05:41:51;101203.59;;;6.28;100.00
66273;BME280;58450;52.150;4.466;2023-02-22T05:44:18;101209.91;;;6.09;100.00
66273;BME280;58450;52.150;4.466;2023-02-22T05:46:48;101210.63;;;6.29;100.00
66273;BME280;58450;52.150;4.466;2023-02-22T05:49:16;101215.38;;;6.07;100.00
66273;BME280;58450;52.150;4.466;2023-02-22T05:51:44;101215.47;;;6.15;100.00
66273;BME280;58450;52.150;4.466;2023-02-22T05:54:12;101201.19;;;6.06;100.00
66273;BME280;58450;52.150;4.466;2023-02-22T05:56:39;101198.00;;;5.93;100.00
66273;BME280;58450;52.150;4.466;2023-02-22T05:59:07;101209.00;;;6.18;100.00
66273;BME280;58450;52.150;4.466;2023-02-22T06:01:34;101201.72;;;6.10;100.00
66273;BME280;58450;52.150;4.466;2023-02-22T06:04:02;101207.22;;;6.09;100.00
66273;BME280;58450;52.150;4.466;2023-02-22T06:06:30;101207.22;;;6.09;100.00
66273;BME280;58450;52.150;4.466;2023-02-22T06:08:59;101196.69;;;6.07;100.00
66273;BME280;58450;52.150;4.466;2023-02-22T06:11:27;101194.84;;;6.08;100.00
66273;BME280;58450;52.150;4.466;2023-02-22T06:13:54;101190.13;;;6.19;100.00
66273;BME280;58450;52.150;4.466;2023-02-22T06:16:21;101186.09;;;6.15;100.00
66273;BME280;58450;52.150;4.466;2023-02-22T06:18:49;101171.97;;;6.23;100.00
66273;BME280;58450;52.150;4.466;2023-02-22T06:21:17;101168.84;;;6.10;100.00
66273;BME280;58450;52.150;4.466;2023-02-22T06:23:44;101159.88;;;6.19;100.00
66273;BME280;58450;52.150;4.466;2023-02-22T06:26:16;101166.31;;;6.26;100.00
66273;BME280;58450;52.150;4.466;2023-02-22T06:28:45;101166.16;;;6.10;100.00
66273;BME280;58450;52.150;4.466;2023-02-22T06:31:13;101162.88;;;6.16;100.00
66273;BME280;58450;52.150;4.466;2023-02-22T06:33:41;101158.16;;;6.28;100.00
66273;BME280;58450;52.150;4.466;2023-02-22T06:36:08;101169.06;;;6.16;100.00
66273;BME280;58450;52.150;4.466;2023-02-22T06:38:36;101177.16;;;6.25;100.00
66273;BME280;58450;52.150;4.466;2023-02-22T06:41:04;101182.72;;;6.13;100.00
66273;BME280;58450;52.150;4.466;2023-02-22T06:43:33;101186.31;;;6.22;100.00
66273;BME280;58450;52.150;4.466;2023-02-22T06:46:00;101185.47;;;6.03;100.00
66273;BME280;58450;52.150;4.466;2023-02-22T06:48:28;101187.53;;;6.10;100.00
66273;BME280;58450;52.150;4.466;2023-02-22T06:50:55;101186.59;;;6.01;100.00
66273;BME280;58450;52.150;4.466;2023-02-22T06:53:23;101191.19;;;6.09;100.00
66273;BME280;58450;52.150;4.466;2023-02-22T06:55:52;101185.00;;;6.08;100.00
66273;BME280;58450;52.150;4.466;2023-02-22T06:58:20;101182.72;;;6.13;100.00
66273;BME280;58450;52.150;4.466;2023-02-22T07:00:49;101181.34;;;6.09;100.00
66273;BME280;58450;52.150;4.466;2023-02-22T07:03:17;101177.44;;;6.03;100.00
66273;BME280;58450;52.150;4.466;2023-02-22T07:05:44;101184.56;;;6.13;100.00
66273;BME280;58450;52.150;4.466;2023-02-22T07:08:12;101173.88;;;6.13;100.00
66273;BME280;58450;52.150;4.466;2023-02-22T07:10:40;101184.41;;;6.14;100.00
66273;BME280;58450;52.150;4.466;2023-02-22T07:13:07;101193.69;;;6.10;100.00
66273;BME280;58450;52.150;4.466;2023-02-22T07:15:35;101193.38;;;5.85;100.00
66273;BME280;58450;52.150;4.466;2023-02-22T07:18:04;101184.75;;;5.91;100.00
66273;BME280;58450;52.150;4.466;2023-02-22T07:20:32;101173.69;;;5.86;100.00
66273;BME280;58450;52.150;4.466;2023-02-22T07:23:01;101184.03;;;5.99;100.00
66273;BME280;58450;52.150;4.466;2023-02-22T07:25:28;101188.88;;;5.86;100.00
66273;BME280;58450;52.150;4.466;2023-02-22T07:27:56;101193.94;;;5.89;100.00
66273;BME280;58450;52.150;4.466;2023-02-22T07:30:26;101197.91;;;5.75;100.00
66273;BME280;58450;52.150;4.466;2023-02-22T07:32:57;101198.13;;;6.01;100.00
66273;BME280;58450;52.150;4.466;2023-02-22T07:35:28;101199.34;;;6.07;100.00
66273;BME280;58450;52.150;4.466;2023-02-22T07:37:57;101201.72;;;5.72;100.00
66273;BME280;58450;52.150;4.466;2023-02-22T07:40:26;101198.72;;;5.85;100.00
66273;BME280;58450;52.150;4.466;2023-02-22T07:42:56;101195.09;;;5.76;100.00
66273;BME280;58450;52.150;4.466;2023-02-22T07:45:26;101193.31;;;5.67;100.00
66273;BME280;58450;52.150;4.466;2023-02-22T07:47:55;101188.59;;;5.89;100.00
66273;BME280;58450;52.150;4.466;2023-02-22T07:50:24;101194.50;;;5.83;100.00
66273;BME280;58450;52.150;4.466;2023-02-22T07:52:55;101206.66;;;5.67;100.00
66273;BME280;58450;52.150;4.466;2023-02-22T07:55:26;101205.78;;;5.76;100.00
66273;BME280;58450;52.150;4.466;2023-02-22T07:57:56;101199.78;;;5.65;100.00
66273;BME280;58450;52.150;4.466;2023-02-22T08:00:28;101203.81;;;5.79;100.00
66273;BME280;58450;52.150;4.466;2023-02-22T08:02:58;101195.63;;;5.80;100.00
66273;BME280;58450;52.150;4.466;2023-02-22T08:05:29;101185.69;;;5.72;100.00
66273;BME280;58450;52.150;4.466;2023-02-22T08:07:59;101184.88;;;5.72;100.00
66273;BME280;58450;52.150;4.466;2023-02-22T08:10:27;101182.16;;;5.82;100.00
66273;BME280;58450;52.150;4.466;2023-02-22T08:12:55;101169.84;;;5.71;100.00
66273;BME280;58450;52.150;4.466;2023-02-22T08:15:25;101180.50;;;5.99;100.00
66273;BME280;58450;52.150;4.466;2023-02-22T08:17:54;101188.25;;;6.30;100.00
66273;BME280;58450;52.150;4.466;2023-02-22T08:20:23;101186.06;;;6.43;100.00
66273;BME280;58450;52.150;4.466;2023-02-22T08:22:51;101182.34;;;6.26;100.00
66273;BME280;58450;52.150;4.466;2023-02-22T08:25:24;101174.22;;;6.46;100.00
66273;BME280;58450;52.150;4.466;2023-02-22T08:27:56;101176.53;;;6.59;100.00
66273;BME280;58450;52.150;4.466;2023-02-22T08:30:27;101174.22;;;6.46;100.00
66273;BME280;58450;52.150;4.466;2023-02-22T08:32:56;101163.84;;;6.61;100.00
66273;BME280;58450;52.150;4.466;2023-02-22T08:35:25;101151.00;;;6.46;100.00
66273;BME280;58450;52.150;4.466;2023-02-22T08:37:55;101155.41;;;6.38;100.00
66273;BME280;58450;52.150;4.466;2023-02-22T08:40:27;101152.59;;;6.39;100.00
66273;BME280;58450;52.150;4.466;2023-02-22T08:42:59;101153.50;;;6.30;100.00
66273;BME280;58450;52.150;4.466;2023-02-22T08:45:27;101155.28;;;6.39;100.00
66273;BME280;58450;52.150;4.466;2023-02-22T08:47:56;101148.53;;;6.17;100.00
66273;BME280;58450;52.150;4.466;2023-02-22T08:50:27;101143.72;;;6.39;100.00
66273;BME280;58450;52.150;4.466;2023-02-22T08:52:58;101128.91;;;6.62;100.00
66273;BME280;58450;52.150;4.466;2023-02-22T08:55:30;101122.78;;;6.70;100.00
66273;BME280;58450;52.150;4.466;2023-02-22T08:57:59;101119.53;;;6.85;100.00
66273;BME280;58450;52.150;4.466;2023-02-22T09:00:28;101138.28;;;7.11;100.00
66273;BME280;58450;52.150;4.466;2023-02-22T09:02:58;101134.22;;;6.80;100.00
66273;BME280;58450;52.150;4.466;2023-02-22T09:05:25;101136.66;;;6.92;100.00
66273;BME280;58450;52.150;4.466;2023-02-22T09:07:53;101130.31;;;6.93;100.00
66273;BME280;58450;52.150;4.466;2023-02-22T09:10:23;101134.41;;;7.05;100.00
66273;BME280;58450;52.150;4.466;2023-02-22T09:12:54;101119.66;;;7.01;100.00
66273;BME280;58450;52.150;4.466;2023-02-22T09:15:23;101123.22;;;7.10;100.00
66273;BME280;58450;52.150;4.466;2023-02-22T09:17:52;101119.72;;;7.09;100.00
66273;BME280;58450;52.150;4.466;2023-02-22T09:20:22;101116.47;;;7.24;100.00
66273;BME280;58450;52.150;4.466;2023-02-22T09:22:50;101117.25;;;7.43;100.00
66273;BME280;58450;52.150;4.466;2023-02-22T09:25:20;101108.09;;;7.53;100.00
66273;BME280;58450;52.150;4.466;2023-02-22T09:27:48;101106.53;;;7.51;100.00
66273;BME280;58450;52.150;4.466;2023-02-22T09:30:22;101101.56;;;7.56;100.00
66273;BME280;58450;52.150;4.466;2023-02-22T09:32:53;101106.44;;;7.61;100.00
66273;BME280;58450;52.150;4.466;2023-02-22T09:35:23;101114.84;;;7.66;100.00
66273;BME280;58450;52.150;4.466;2023-02-22T09:37:54;101131.88;;;7.57;100.00
66273;BME280;58450;52.150;4.466;2023-02-22T09:40:22;101135.94;;;7.69;100.00
66273;BME280;58450;52.150;4.466;2023-02-22T09:43:26;101152.28;;;7.58;100.00
66273;BME280;58450;52.150;4.466;2023-02-22T09:46:14;101154.59;;;7.52;100.00
66273;BME280;58450;52.150;4.466;2023-02-22T09:48:57;101179.56;;;7.88;100.00
66273;BME280;58450;52.150;4.466;2023-02-22T09:51:36;101174.75;;;7.30;100.00
66273;BME280;58450;52.150;4.466;2023-02-22T09:54:13;101154.66;;;7.61;100.00
66273;BME280;58450;52.150;4.466;2023-02-22T09:56:47;101140.69;;;7.83;100.00
66273;BME280;58450;52.150;4.466;2023-02-22T09:59:22;101133.16;;;7.87;100.00
66273;BME280;58450;52.150;4.466;2023-02-22T10:02:01;101149.59;;;7.92;100.00
66273;BME280;58450;52.150;4.466;2023-02-22T10:04:41;101140.47;;;7.77;100.00
66273;BME280;58450;52.150;4.466;2023-02-22T10:07:19;101143.09;;;7.95;100.00
66273;BME280;58450;52.150;4.466;2023-02-22T10:09:52;101133.38;;;8.10;100.00
66273;BME280;58450;52.150;4.466;2023-02-22T10:12:28;101126.50;;;7.99;100.00
66273;BME280;58450;52.150;4.466;2023-02-22T10:15:15;101121.34;;;8.14;100.00
66273;BME280;58450;52.150;4.466;2023-02-22T10:18:04;101113.16;;;8.16;100.00
66273;BME280;58450;52.150;4.466;2023-02-22T10:20:53;101114.50;;;8.28;100.00
66273;BME280;58450;52.150;4.466;2023-02-22T10:23:29;101127.91;;;8.28;100.00
66273;BME280;58450;52.150;4.466;2023-02-22T10:26:13;101159.41;;;8.18;100.00
66273;BME280;58450;52.150;4.466;2023-02-22T10:28:47;101157.00;;;8.07;100.00
66273;BME280;58450;52.150;4.466;2023-02-22T10:31:24;101164.03;;;7.99;100.00
66273;BME280;58450;52.150;4.466;2023-02-22T10:33:57;101150.69;;;8.16;100.00
66273;BME280;58450;52.150;4.466;2023-02-22T10:36:28;101147.00;;;8.17;100.00
66273;BME280;58450;52.150;4.466;2023-02-22T10:38:58;101149.66;;;8.09;100.00
66273;BME280;58450;52.150;4.466;2023-02-22T10:41:28;101144.56;;;8.49;100.00
66273;BME280;58450;52.150;4.466;2023-02-22T10:44:00;101145.38;;;8.49;100.00
66273;BME280;58450;52.150;4.466;2023-02-22T10:46:29;101145.59;;;8.64;100.00
66273;BME280;58450;52.150;4.466;2023-02-22T10:49:03;101141.38;;;8.95;100.00
66273;BME280;58450;52.150;4.466;2023-02-22T10:51:33;101141.53;;;8.85;100.00
66273;BME280;58450;52.150;4.466;2023-02-22T10:54:18;101132.31;;;8.96;100.00
66273;BME280;58450;52.150;4.466;2023-02-22T10:56:53;101122.41;;;9.05;100.00
66273;BME280;58450;52.150;4.466;2023-02-22T10:59:26;101125.59;;;9.08;100.00
66273;BME280;58450;52.150;4.466;2023-02-22T11:01:58;101117.34;;;9.18;100.00
66273;BME280;58450;52.150;4.466;2023-02-22T11:04:44;101117.28;;;9.43;100.00
66273;BME280;58450;52.150;4.466;2023-02-22T11:07:20;101115.09;;;9.46;100.00
66273;BME280;58450;52.150;4.466;2023-02-22T11:09:54;101111.91;;;9.51;100.00
66273;BME280;58450;52.150;4.466;2023-02-22T11:12:31;101113.41;;;9.85;100.00
66273;BME280;58450;52.150;4.466;2023-02-22T11:15:25;101099.66;;;10.12;100.00
66273;BME280;58450;52.150;4.466;2023-02-22T11:17:55;101097.38;;;10.00;100.00
66273;BME280;58450;52.150;4.466;2023-02-22T11:20:29;101087.84;;;9.89;100.00
66273;BME280;58450;52.150;4.466;2023-02-22T11:23:04;101082.97;;;9.93;100.00
66273;BME280;58450;52.150;4.466;2023-02-22T11:25:35;101085.72;;;10.08;100.00
66273;BME280;58450;52.150;4.466;2023-02-22T11:28:08;101097.69;;;10.05;100.00
66273;BME280;58450;52.150;4.466;2023-02-22T11:30:43;101094.66;;;10.09;100.00
66273;BME280;58450;52.150;4.466;2023-02-22T11:33:18;101097.84;;;10.04;100.00
66273;BME280;58450;52.150;4.466;2023-02-22T11:35:52;101092.47;;;10.04;100.00
66273;BME280;58450;52.150;4.466;2023-02-22T11:38:22;101094.75;;;9.92;100.00
66273;BME280;58450;52.150;4.466;2023-02-22T11:41:06;101088.41;;;9.85;100.00
66273;BME280;58450;52.150;4.466;2023-02-22T11:43:40;101086.84;;;9.90;100.00
66273;BME280;58450;52.150;4.466;2023-02-22T11:46:12;101065.31;;;9.90;100.00
66273;BME280;58450;52.150;4.466;2023-02-22T11:48:55;101074.97;;;10.08;100.00
66273;BME280;58450;52.150;4.466;2023-02-22T11:51:42;101069.59;;;10.08;100.00
66273;BME280;58450;52.150;4.466;2023-02-22T11:54:32;101057.09;;;10.15;100.00
66273;BME280;58450;52.150;4.466;2023-02-22T11:57:18;101066.91;;;10.31;100.00
66273;BME280;58450;52.150;4.466;2023-02-22T12:00:02;101062.72;;;10.29;100.00
66273;BME280;58450;52.150;4.466;2023-02-22T12:02:54;101059.16;;;10.60;100.00
66273;BME280;58450;52.150;4.466;2023-02-22T12:05:52;101054.53;;;10.84;100.00
66273;BME280;58450;52.150;4.466;2023-02-22T12:08:41;101060.84;;;10.76;100.00
66273;BME280;58450;52.150;4.466;2023-02-22T12:11:24;101050.09;;;10.76;100.00
66273;BME280;58450;52.150;4.466;2023-02-22T12:14:08;101052.16;;;11.04;100.00
66273;BME280;58450;52.150;4.466;2023-02-22T12:17:01;101047.69;;;11.26;100.00
66273;BME280;58450;52.150;4.466;2023-02-22T12:19:42;101053.44;;;11.08;100.00
66273;BME280;58450;52.150;4.466;2023-02-22T12:22:17;101053.25;;;10.94;100.00
66273;BME280;58450;52.150;4.466;2023-02-22T12:24:54;101057.16;;;11.07;100.00
66273;BME280;58450;52.150;4.466;2023-02-22T12:27:30;101049.63;;;11.17;100.00
66273;BME280;58450;52.150;4.466;2023-02-22T12:30:06;101045.06;;;11.33;100.00
66273;BME280;58450;52.150;4.466;2023-02-22T12:32:42;101053.25;;;11.24;100.00
66273;BME280;58450;52.150;4.466;2023-02-22T12:35:19;101049.84;;;11.16;100.00
66273;BME280;58450;52.150;4.466;2023-02-22T12:37:58;101051.50;;;11.02;100.00
66273;BME280;58450;52.150;4.466;2023-02-22T12:40:36;101045.25;;;11.16;100.00
66273;BME280;58450;52.150;4.466;2023-02-22T12:43:14;101050.44;;;10.73;100.00
66273;BME280;58450;52.150;4.466;2023-02-22T12:45:53;101055.03;;;10.87;100.00
66273;BME280;58450;52.150;4.466;2023-02-22T12:48:34;101058.53;;;10.73;100.00
66273;BME280;58450;52.150;4.466;2023-02-22T12:51:20;101055.91;;;10.79;100.00
66273;BME280;58450;52.150;4.466;2023-02-22T12:53:58;101064.13;;;10.86;100.00
66273;BME280;58450;52.150;4.466;2023-02-22T12:56:36;101064.34;;;10.76;100.00
66273;BME280;58450;52.150;4.466;2023-02-22T12:59:14;101063.06;;;10.72;100.00
66273;BME280;58450;52.150;4.466;2023-02-22T13:01:51;101059.56;;;10.87;100.00
66273;BME280;58450;52.150;4.466;2023-02-22T13:04:23;101059.56;;;10.87;100.00
66273;BME280;58450;52.150;4.466;2023-02-22T13:06:58;101054.38;;;10.47;100.00
66273;BME280;58450;52.150;4.466;2023-02-22T13:09:56;101054.31;;;10.32;100.00
66273;BME280;58450;52.150;4.466;2023-02-22T13:12:40;101050.97;;;10.53;100.00
66273;BME280;58450;52.150;4.466;2023-02-22T13:15:18;101036.91;;;10.81;100.00
66273;BME280;58450;52.150;4.466;2023-02-22T13:17:58;101046.47;;;10.84;100.00
66273;BME280;58450;52.150;4.466;2023-02-22T13:20:36;101042.13;;;11.13;100.00